Time;durP1;ratioP1;P1;durP2;ratioP2;P2;SDS_P1;SDS_P2;PMS_P1;PMS_P2;Temp;Humidity;BMP_temperature;BMP_pressure;BME280_temperature;BME280_humidity;BME280_pressure;Samples;Min_cycle;Max_cycle;Signal;HPM_P1;HPM_P2
2023/07/14 00:00:07;;;;;;;7.90;7.10;;;;;;;15.04;79.34;100392.71;128951;1265;114745;-71
2023/07/14 00:03:29;;;;;;;9.20;7.00;;;;;;;14.99;79.43;100396.61;129227;1265;130109;-71
2023/07/14 00:06:31;;;;;;;10.80;7.90;;;;;;;14.96;80.04;100406.92;129232;1270;114720;-71
2023/07/14 00:09:33;;;;;;;8.40;7.50;;;;;;;14.94;80.20;100398.79;129342;1281;115491;-71
2023/07/14 00:12:35;;;;;;;10.50;7.50;;;;;;;14.91;80.14;100400.00;129298;1265;114906;-70
2023/07/14 00:15:39;;;;;;;10.30;7.50;;;;;;;14.89;80.40;100401.78;129336;1271;114759;-70
2023/07/14 00:18:42;;;;;;;9.00;6.30;;;;;;;14.86;80.74;100404.15;129300;1288;114770;-72
2023/07/14 00:21:45;;;;;;;8.80;7.00;;;;;;;14.83;80.26;100408.12;129194;1270;114941;-71
2023/07/14 00:24:47;;;;;;;10.80;7.50;;;;;;;14.79;80.61;100408.54;129257;1271;114818;-71
2023/07/14 00:27:53;;;;;;;11.40;8.90;;;;;;;14.76;80.74;100414.30;129252;1271;114738;-72
2023/07/14 00:30:55;;;;;;;18.90;14.00;;;;;;;14.72;80.72;100413.50;129131;1265;114880;-66
2023/07/14 00:33:58;;;;;;;23.20;14.40;;;;;;;14.68;80.78;100413.02;129004;1284;114774;-66
2023/07/14 00:37:00;;;;;;;22.90;17.10;;;;;;;14.63;80.77;100409.73;129484;1270;114779;-66
2023/07/14 00:40:03;;;;;;;21.80;17.60;;;;;;;14.59;80.89;100407.63;128837;1276;114868;-70
2023/07/14 00:43:12;;;;;;;19.30;16.60;;;;;;;14.55;80.94;100406.08;128619;1276;114971;-66
2023/07/14 00:46:29;;;;;;;23.40;16.70;;;;;;;14.51;80.78;100409.05;128881;1293;115218;-66
2023/07/14 00:49:35;;;;;;;20.10;15.60;;;;;;;14.47;80.99;100406.26;128526;1276;114939;-67
2023/07/14 00:52:39;;;;;;;19.80;14.90;;;;;;;14.42;81.11;100405.48;128530;1276;114982;-67
2023/07/14 00:55:48;;;;;;;18.30;15.00;;;;;;;14.39;81.13;100408.94;128589;1286;114826;-67
2023/07/14 00:58:50;;;;;;;19.40;14.00;;;;;;;14.35;81.37;100410.42;128520;1271;128690;-65
2023/07/14 01:02:11;;;;;;;22.40;16.10;;;;;;;14.32;81.41;100410.98;128693;1273;115145;-65
2023/07/14 01:05:13;;;;;;;16.60;14.80;;;;;;;14.27;81.40;100417.55;128837;1271;114874;-64
2023/07/14 01:08:16;;;;;;;18.20;15.50;;;;;;;14.23;81.43;100414.02;128997;1265;114747;-66
2023/07/14 01:11:20;;;;;;;20.80;14.00;;;;;;;14.19;81.57;100417.35;129153;1271;114834;-64
2023/07/14 01:14:29;;;;;;;15.80;13.30;;;;;;;14.14;81.37;100417.64;129010;1272;114853;-64
2023/07/14 01:17:33;;;;;;;19.50;16.20;;;;;;;14.10;81.56;100424.73;128779;1273;127662;-66
2023/07/14 01:20:38;;;;;;;17.70;14.60;;;;;;;14.06;81.47;100427.15;128803;1265;114910;-63
2023/07/14 01:23:50;;;;;;;18.50;15.40;;;;;;;14.01;81.56;100427.27;128994;1265;114747;-64
2023/07/14 01:26:54;;;;;;;17.70;14.80;;;;;;;13.96;81.52;100426.65;128989;1270;114820;-64
2023/07/14 01:29:56;;;;;;;18.40;15.50;;;;;;;13.92;81.77;100433.02;129000;1270;114736;-65
2023/07/14 01:32:58;;;;;;;22.30;15.90;;;;;;;13.89;81.79;100433.55;128912;1271;114759;-64
2023/07/14 01:36:00;;;;;;;17.80;15.80;;;;;;;13.85;81.92;100436.31;129014;1270;114961;-64
2023/07/14 01:39:03;;;;;;;18.90;15.70;;;;;;;13.82;81.96;100436.68;128823;1288;115220;-64
2023/07/14 01:42:07;;;;;;;18.20;15.20;;;;;;;13.78;82.07;100444.45;129088;1270;114831;-64
2023/07/14 01:45:16;;;;;;;22.40;15.70;;;;;;;13.74;82.05;100447.23;128977;1282;114874;-65
2023/07/14 01:48:21;;;;;;;17.20;14.80;;;;;;;13.70;82.06;100450.16;129041;1270;114864;-65
2023/07/14 01:51:28;;;;;;;20.20;16.60;;;;;;;13.66;82.16;100454.33;128662;1273;126698;-64
2023/07/14 01:54:38;;;;;;;18.50;15.00;;;;;;;13.61;82.49;100453.36;128833;1270;116455;-64
2023/07/14 01:57:42;;;;;;;17.80;15.80;;;;;;;13.59;82.50;100456.76;128788;1265;114862;-64
2023/07/14 02:00:46;;;;;;;18.60;14.70;;;;;;;13.56;82.48;100458.01;128731;1270;114857;-64
2023/07/14 02:03:50;;;;;;;20.90;15.30;;;;;;;13.53;82.61;100463.36;128864;1265;114848;-64
2023/07/14 02:06:56;;;;;;;19.40;15.00;;;;;;;13.51;82.75;100463.65;128653;1266;128601;-64
2023/07/14 02:09:58;;;;;;;19.80;15.30;;;;;;;13.48;82.74;100466.70;129094;1270;115300;-64
2023/07/14 02:13:02;;;;;;;24.60;15.80;;;;;;;13.45;82.89;100470.98;129013;1279;114754;-64
2023/07/14 02:16:04;;;;;;;18.30;15.00;;;;;;;13.43;82.92;100475.98;129078;1285;114872;-64
2023/07/14 02:19:13;;;;;;;17.70;14.70;;;;;;;13.39;83.06;100477.96;128954;1265;114878;-64
2023/07/14 02:22:16;;;;;;;19.20;15.00;;;;;;;13.36;83.20;100480.98;128903;1271;129072;-65
2023/07/14 02:25:19;;;;;;;21.10;14.40;;;;;;;13.34;83.40;100486.30;128828;1267;114951;-64
2023/07/14 02:28:21;;;;;;;18.30;14.20;;;;;;;13.32;83.50;100489.14;128791;1270;115498;-65
2023/07/14 02:31:36;;;;;;;18.10;14.20;;;;;;;13.29;83.38;100492.35;128844;1289;114743;-65
2023/07/14 02:34:40;;;;;;;;;;;;;;;13.27;83.66;100492.12;128692;1276;114795;-64
2023/07/14 02:38:06;;;;;;;14.50;12.60;;;;;;;13.24;83.79;100496.59;128575;1289;128449;-64
2023/07/14 02:41:19;;;;;;;18.30;13.20;;;;;;;13.23;84.10;100501.30;128771;1270;115197;-64
2023/07/14 02:44:27;;;;;;;21.40;12.40;;;;;;;13.23;84.19;100499.35;128630;1273;114931;-65
2023/07/14 02:47:30;;;;;;;17.90;11.90;;;;;;;13.22;84.34;100502.08;128905;1272;115402;-65
2023/07/14 02:50:32;;;;;;;16.30;12.10;;;;;;;13.21;84.34;100508.21;129128;1270;114904;-64
2023/07/14 02:53:34;;;;;;;15.60;12.20;;;;;;;13.21;84.39;100510.94;129227;1266;114829;-65
2023/07/14 02:56:37;;;;;;;15.50;12.10;;;;;;;13.21;84.57;100513.77;129137;1274;114750;-64
2023/07/14 02:59:39;;;;;;;15.10;11.20;;;;;;;13.22;84.71;100515.15;128717;1270;115320;-65
2023/07/14 03:02:42;;;;;;;14.50;11.00;;;;;;;13.24;84.87;100517.04;129033;1277;114695;-66
2023/07/14 03:05:45;;;;;;;16.70;10.90;;;;;;;13.26;84.88;100518.38;128985;1270;114877;-64
2023/07/14 03:08:47;;;;;;;15.60;10.80;;;;;;;13.28;84.98;100525.05;129048;1269;115238;-65
2023/07/14 03:11:49;;;;;;;15.10;11.60;;;;;;;13.31;85.21;100527.58;129373;1267;114763;-66
2023/07/14 03:14:51;;;;;;;15.60;10.60;;;;;;;13.35;85.33;100528.60;129091;1283;129146;-65
2023/07/14 03:17:54;;;;;;;15.90;10.70;;;;;;;13.38;85.44;100534.70;128832;1271;114744;-65
2023/07/14 03:21:01;;;;;;;14.40;11.50;;;;;;;13.42;85.49;100533.81;128985;1271;114821;-65
2023/07/14 03:24:03;;;;;;;13.90;10.00;;;;;;;13.47;85.62;100531.73;128779;1272;116300;-66
2023/07/14 03:27:05;;;;;;;12.00;10.40;;;;;;;13.52;85.70;100540.41;129252;1283;114784;-64
2023/07/14 03:30:07;;;;;;;19.30;10.60;;;;;;;13.58;85.70;100544.02;128776;1288;329106;-66
2023/07/14 03:33:10;;;;;;;12.00;9.20;;;;;;;13.65;85.78;100547.20;128671;1288;128260;-64
2023/07/14 03:36:13;;;;;;;15.10;10.90;;;;;;;13.73;85.85;100545.66;129005;1271;114766;-63
2023/07/14 03:39:24;;;;;;;15.40;10.00;;;;;;;13.82;85.89;100551.92;129005;1278;114886;-65
2023/07/14 03:42:27;;;;;;;11.70;9.70;;;;;;;13.93;86.07;100553.42;129065;1270;114859;-65
2023/07/14 03:45:33;;;;;;;13.80;9.70;;;;;;;14.04;86.28;100558.52;129106;1270;115182;-63
2023/07/14 03:48:35;;;;;;;11.30;10.10;;;;;;;14.18;86.27;100555.75;128943;1271;128054;-65
2023/07/14 03:51:38;;;;;;;15.40;9.20;;;;;;;14.30;86.15;100556.28;129061;1278;114769;-65
2023/07/14 03:54:40;;;;;;;12.30;9.00;;;;;;;14.41;86.02;100559.88;129143;1269;114916;-64
2023/07/14 03:57:42;;;;;;;13.60;8.90;;;;;;;14.53;86.02;100559.90;128967;1284;114795;-65
2023/07/14 04:00:44;;;;;;;14.10;8.20;;;;;;;14.66;85.84;100561.96;129077;1270;114899;-64
2023/07/14 04:03:47;;;;;;;11.60;7.90;;;;;;;14.79;85.88;100565.86;129108;1271;114750;-65
2023/07/14 04:06:50;;;;;;;14.40;8.20;;;;;;;14.90;85.67;100566.09;128823;1271;115580;-64
2023/07/14 04:09:52;;;;;;;10.60;7.10;;;;;;;15.01;85.47;100569.49;128930;1281;114772;-64
2023/07/14 04:12:59;;;;;;;12.20;7.30;;;;;;;15.13;85.19;100573.44;129059;1270;114753;-65
2023/07/14 04:16:03;;;;;;;11.50;7.40;;;;;;;15.25;85.07;100573.19;128901;1265;114882;-66
2023/07/14 04:19:06;;;;;;;13.60;7.30;;;;;;;15.36;84.95;100576.98;128891;1272;114935;-64
2023/07/14 04:22:08;;;;;;;8.30;6.70;;;;;;;15.45;84.68;100575.52;128926;1269;114740;-64
2023/07/14 04:25:11;;;;;;;12.00;6.20;;;;;;;15.53;84.53;100577.90;129003;1282;114766;-63
2023/07/14 04:28:13;;;;;;;16.90;6.70;;;;;;;15.61;84.38;100579.48;129022;1279;115242;-64
2023/07/14 04:31:16;;;;;;;11.60;6.90;;;;;;;15.72;84.05;100585.27;128766;1285;115258;-63
2023/07/14 04:34:19;;;;;;;10.50;6.70;;;;;;;15.82;83.87;100588.23;128874;1270;114787;-64
2023/07/14 04:37:21;;;;;;;11.60;7.00;;;;;;;15.93;83.74;100585.71;129071;1270;114784;-64
2023/07/14 04:40:23;;;;;;;9.50;6.70;;;;;;;16.06;83.60;100589.88;129146;1267;114906;-63
2023/07/14 04:43:26;;;;;;;13.40;6.50;;;;;;;16.18;83.41;100593.17;128996;1284;114688;-63
2023/07/14 04:46:28;;;;;;;10.90;6.60;;;;;;;16.48;83.90;100594.96;129001;1272;114768;-63
2023/07/14 04:49:30;;;;;;;8.90;5.40;;;;;;;17.06;84.22;100596.63;129066;1266;117410;-63
2023/07/14 04:52:34;;;;;;;7.90;5.20;;;;;;;17.74;83.92;100592.79;128896;1270;117287;-66
2023/07/14 04:55:37;;;;;;;9.20;4.70;;;;;;;18.51;83.14;100592.54;128711;1265;114849;-64
2023/07/14 04:58:39;;;;;;;8.90;4.40;;;;;;;19.26;81.70;100589.69;129011;1270;114743;-66
2023/07/14 05:01:42;;;;;;;11.30;4.30;;;;;;;19.97;79.94;100587.50;128994;1281;114748;-68
2023/07/14 05:05:18;;;;;;;10.40;4.70;;;;;;;20.61;78.45;100582.00;129318;1288;114909;-68
2023/07/14 05:08:20;;;;;;;8.50;4.20;;;;;;;21.37;76.88;100588.61;128728;1288;116602;-67
2023/07/14 05:11:23;;;;;;;7.10;4.00;;;;;;;22.00;75.64;100595.98;129344;1269;114762;-66
2023/07/14 05:14:26;;;;;;;7.40;3.90;;;;;;;22.61;74.29;100595.56;129104;1281;114797;-66
2023/07/14 05:17:28;;;;;;;8.10;4.00;;;;;;;22.86;72.68;100593.92;128987;1288;114855;-67
2023/07/14 05:20:31;;;;;;;8.00;4.20;;;;;;;22.81;71.54;100599.88;129081;1278;114829;-67
2023/07/14 05:23:33;;;;;;;7.90;4.40;;;;;;;22.62;70.46;100601.83;128760;1271;127954;-67
2023/07/14 05:26:36;;;;;;;6.70;3.60;;;;;;;22.39;69.84;100602.55;129280;1270;114753;-67
2023/07/14 05:29:38;;;;;;;6.20;4.40;;;;;;;22.18;69.28;100604.66;129264;1270;114852;-68
2023/07/14 05:32:42;;;;;;;8.30;4.30;;;;;;;22.06;69.05;100600.30;129092;1270;115141;-67
2023/07/14 05:35:45;;;;;;;;;;;;;;;22.25;69.03;100593.31;129323;1265;114763;-67
2023/07/14 05:38:47;;;;;;;6.30;3.70;;;;;;;22.54;68.44;100594.61;129254;1271;114835;-67
2023/07/14 05:41:49;;;;;;;7.60;4.30;;;;;;;22.79;67.94;100596.56;129236;1269;114782;-67
2023/07/14 05:44:53;;;;;;;9.90;3.90;;;;;;;23.06;67.26;100599.10;129160;1271;114836;-65
2023/07/14 05:47:55;;;;;;;11.10;4.00;;;;;;;23.35;66.82;100595.25;129015;1281;115220;-65
2023/07/14 05:50:58;;;;;;;4.60;3.90;;;;;;;23.64;66.12;100590.36;128917;1265;114780;-66
2023/07/14 05:54:00;;;;;;;12.00;4.10;;;;;;;23.95;65.41;100596.55;129157;1270;114758;-65
2023/07/14 05:57:03;;;;;;;9.60;3.50;;;;;;;24.17;64.44;100602.48;129077;1288;114770;-67
2023/07/14 06:00:16;;;;;;;6.40;3.50;;;;;;;24.44;64.13;100603.01;129077;1272;115489;-67
2023/07/14 06:03:18;;;;;;;7.30;3.20;;;;;;;24.49;63.50;100601.77;128974;1270;128848;-68
2023/07/14 06:06:20;;;;;;;6.40;3.30;;;;;;;24.54;63.12;100604.90;129301;1280;115003;-64
2023/07/14 06:09:23;;;;;;;5.50;3.30;;;;;;;24.63;62.50;100604.54;128953;1288;115372;-68
2023/07/14 06:12:25;;;;;;;6.40;3.00;;;;;;;24.70;62.05;100603.61;129427;1276;114742;-65
2023/07/14 06:15:28;;;;;;;7.70;2.80;;;;;;;24.74;61.79;100600.70;129293;1270;114779;-66
2023/07/14 06:18:30;;;;;;;3.00;2.40;;;;;;;24.83;61.56;100606.83;128974;1288;114910;-64
2023/07/14 06:21:32;;;;;;;5.50;3.10;;;;;;;25.09;61.22;100611.52;129054;1265;114764;-66
2023/07/14 06:24:35;;;;;;;6.30;2.90;;;;;;;25.49;60.53;100614.11;129217;1271;115180;-65
2023/07/14 06:27:37;;;;;;;7.20;2.90;;;;;;;25.96;59.96;100614.86;128793;1279;115605;-65
2023/07/14 06:30:40;;;;;;;4.00;2.80;;;;;;;26.47;58.78;100619.02;129028;1282;115136;-66
2023/07/14 06:33:42;;;;;;;5.70;3.00;;;;;;;26.78;57.70;100616.80;129045;1278;114895;-67
2023/07/14 06:36:44;;;;;;;5.20;3.20;;;;;;;27.21;57.37;100613.03;129091;1271;114961;-67
2023/07/14 06:39:47;;;;;;;5.80;2.70;;;;;;;27.37;55.91;100608.80;128929;1278;114806;-67
2023/07/14 06:42:49;;;;;;;5.60;2.60;;;;;;;27.37;55.44;100609.20;129170;1271;114770;-66
2023/07/14 06:45:51;;;;;;;4.50;3.00;;;;;;;27.33;54.79;100610.96;128889;1271;119796;-67
2023/07/14 06:48:54;;;;;;;5.20;2.80;;;;;;;27.22;54.40;100612.42;129093;1270;114767;-67
2023/07/14 06:51:56;;;;;;;5.10;2.70;;;;;;;27.02;53.84;100616.48;129045;1270;114918;-67
2023/07/14 06:54:58;;;;;;;6.10;2.50;;;;;;;26.87;53.88;100616.91;129443;1285;115340;-67
2023/07/14 06:58:00;;;;;;;3.10;2.30;;;;;;;26.87;53.74;100619.70;128992;1273;114946;-68
2023/07/14 07:01:02;;;;;;;4.30;2.20;;;;;;;26.87;53.51;100623.20;129312;1288;114778;-67
2023/07/14 07:04:05;;;;;;;4.10;2.40;;;;;;;26.88;53.44;100630.95;129371;1267;115621;-67
2023/07/14 07:07:07;;;;;;;5.30;2.70;;;;;;;26.83;52.97;100633.36;128959;1271;119631;-67
2023/07/14 07:10:09;;;;;;;3.70;2.30;;;;;;;26.73;52.34;100631.50;129320;1269;114698;-67
2023/07/14 07:13:12;;;;;;;4.70;2.60;;;;;;;26.59;52.49;100627.60;129304;1288;114771;-66
2023/07/14 07:16:15;;;;;;;2.80;2.20;;;;;;;26.56;52.47;100626.79;129317;1267;114739;-67
2023/07/14 07:19:17;;;;;;;7.20;2.50;;;;;;;26.61;52.21;100629.73;129265;1278;114796;-68
2023/07/14 07:22:19;;;;;;;3.70;2.60;;;;;;;26.57;52.15;100630.41;129293;1288;114867;-67
2023/07/14 07:25:21;;;;;;;4.00;2.10;;;;;;;26.49;51.63;100629.80;129391;1271;114768;-67
2023/07/14 07:28:24;;;;;;;5.30;2.40;;;;;;;26.42;51.21;100632.19;129041;1288;119438;-65
2023/07/14 07:31:26;;;;;;;4.90;2.20;;;;;;;26.29;50.80;100627.23;129223;1278;114778;-65
2023/07/14 07:34:28;;;;;;;4.70;2.30;;;;;;;26.11;50.94;100626.83;129331;1270;115230;-66
2023/07/14 07:37:34;;;;;;;7.30;2.80;;;;;;;26.04;51.11;100623.97;129162;1274;114882;-66
2023/07/14 07:40:38;;;;;;;6.40;2.30;;;;;;;25.91;50.74;100618.94;129150;1273;115564;-66
2023/07/14 07:43:40;;;;;;;7.60;2.40;;;;;;;25.76;51.08;100618.53;129324;1275;114807;-67
2023/07/14 07:46:42;;;;;;;3.90;2.40;;;;;;;25.67;51.17;100616.32;129343;1270;115495;-67
2023/07/14 07:49:47;;;;;;;2.50;1.90;;;;;;;25.57;51.27;100614.91;129328;1267;114792;-67
2023/07/14 07:52:51;;;;;;;8.10;3.00;;;;;;;25.43;51.05;100612.56;128994;1267;115247;-67
2023/07/14 07:55:57;;;;;;;3.50;2.30;;;;;;;25.28;50.59;100606.56;129186;1270;114924;-67
2023/07/14 07:58:59;;;;;;;7.30;2.60;;;;;;;25.11;50.62;100606.69;129323;1269;114860;-67
2023/07/14 08:02:01;;;;;;;5.30;3.20;;;;;;;24.95;50.80;100606.72;129231;1270;114797;-66
2023/07/14 08:05:04;;;;;;;4.70;2.70;;;;;;;24.74;50.64;100604.33;129277;1270;114731;-66
2023/07/14 08:08:07;;;;;;;4.50;2.10;;;;;;;24.57;50.78;100606.80;129022;1288;128851;-66
2023/07/14 08:11:11;;;;;;;4.20;2.00;;;;;;;24.48;50.66;100609.19;129059;1288;114781;-67
2023/07/14 08:14:17;;;;;;;6.80;2.30;;;;;;;24.50;51.37;100608.63;129098;1267;114820;-67
2023/07/14 08:17:31;;;;;;;2.60;2.00;;;;;;;24.73;51.37;100610.62;129115;1267;115569;-66
2023/07/14 08:20:36;;;;;;;2.80;2.00;;;;;;;25.22;51.12;100612.67;129018;1288;114863;-67
2023/07/14 08:23:40;;;;;;;3.30;2.00;;;;;;;25.86;50.87;100616.00;128781;1284;119086;-68
2023/07/14 08:26:42;;;;;;;3.30;2.00;;;;;;;26.28;50.10;100614.88;129246;1273;114870;-68
2023/07/14 08:29:44;;;;;;;4.50;2.10;;;;;;;26.59;49.53;100611.59;129330;1288;114747;-68
2023/07/14 08:32:50;;;;;;;5.30;2.00;;;;;;;26.80;49.46;100610.92;129402;1288;114747;-69
2023/07/14 08:35:53;;;;;;;3.70;2.20;;;;;;;26.82;48.43;100610.70;129386;1269;114848;-69
2023/07/14 08:38:55;;;;;;;2.10;1.70;;;;;;;26.72;48.25;100613.43;129215;1281;114960;-69
2023/07/14 08:42:02;;;;;;;2.60;2.00;;;;;;;26.57;48.20;100611.68;129315;1270;114782;-69
2023/07/14 08:45:24;;;;;;;5.50;2.10;;;;;;;26.50;48.21;100610.02;129098;1284;114800;-68
2023/07/14 08:48:38;;;;;;;2.20;1.90;;;;;;;26.48;48.04;100616.17;129318;1269;114755;-68
2023/07/14 08:51:44;;;;;;;6.10;2.50;;;;;;;26.40;47.48;100617.80;129123;1281;114770;-66
2023/07/14 08:54:53;;;;;;;4.20;2.40;;;;;;;26.29;47.01;100619.55;128782;1288;114946;-67
2023/07/14 08:57:59;;;;;;;2.80;2.20;;;;;;;26.15;46.81;100619.98;129310;1270;120110;-69
2023/07/14 09:01:10;;;;;;;3.10;2.10;;;;;;;25.98;46.63;100616.96;129340;1278;115228;-67
2023/07/14 09:04:27;;;;;;;6.60;2.30;;;;;;;25.76;46.83;100617.27;128834;1270;114788;-68
2023/07/14 09:07:29;;;;;;;8.70;3.50;;;;;;;25.52;47.19;100618.74;129208;1270;114800;-69
2023/07/14 09:10:58;;;;;;;2.70;2.10;;;;;;;25.30;47.11;100619.98;129251;1271;115271;-69
2023/07/14 09:14:06;;;;;;;2.60;2.00;;;;;;;25.02;47.20;100615.08;129228;1278;119416;-71
2023/07/14 09:17:25;;;;;;;3.50;2.20;;;;;;;24.76;47.42;100613.41;129047;1288;115322;-70
2023/07/14 09:20:58;;;;;;;3.30;2.20;;;;;;;24.56;47.53;100608.73;129171;1269;114741;-70
2023/07/14 09:24:21;;;;;;;4.50;2.10;;;;;;;24.38;47.83;100603.84;129347;1288;114790;-69
2023/07/14 09:27:26;;;;;;;3.70;1.90;;;;;;;24.27;47.92;100608.21;129031;1270;114989;-70
2023/07/14 09:30:29;;;;;;;3.30;1.90;;;;;;;24.28;48.06;100611.40;129377;1288;127892;-69
2023/07/14 09:33:44;;;;;;;2.20;1.80;;;;;;;24.41;48.01;100605.20;129312;1271;114773;-69
2023/07/14 09:36:47;;;;;;;4.50;2.10;;;;;;;24.79;47.96;100606.73;129135;1269;114809;-69
2023/07/14 09:39:59;;;;;;;6.00;2.50;;;;;;;25.23;47.56;100605.18;129346;1278;114859;-70
2023/07/14 09:43:02;;;;;;;4.00;1.90;;;;;;;25.60;47.35;100601.83;129195;1288;114945;-70
2023/07/14 09:46:04;;;;;;;3.40;2.20;;;;;;;25.91;47.20;100600.83;129340;1288;114805;-69
2023/07/14 09:49:17;;;;;;;4.60;2.20;;;;;;;26.31;47.11;100593.38;129272;1288;115461;-69
2023/07/14 09:52:23;;;;;;;2.80;1.80;;;;;;;26.54;46.01;100589.14;129212;1267;114758;-69
2023/07/14 09:55:25;;;;;;;2.60;2.00;;;;;;;26.68;45.47;100586.61;129046;1270;114929;-68
2023/07/14 09:58:29;;;;;;;5.30;2.30;;;;;;;26.84;45.32;100585.22;129253;1269;114692;-70
2023/07/14 10:01:32;;;;;;;8.10;2.20;;;;;;;26.88;44.82;100580.23;129324;1270;116369;-70
2023/07/14 10:04:36;;;;;;;5.40;2.30;;;;;;;26.92;44.98;100569.70;129262;1267;115446;-69
2023/07/14 10:07:41;;;;;;;2.40;1.90;;;;;;;26.90;44.55;100564.76;129266;1269;114740;-69
2023/07/14 10:10:44;;;;;;;2.40;2.20;;;;;;;26.97;44.06;100562.13;129211;1288;114832;-69
2023/07/14 10:13:52;;;;;;;4.20;2.40;;;;;;;27.04;44.45;100561.52;129273;1271;114810;-68
2023/07/14 10:16:56;;;;;;;2.20;2.00;;;;;;;27.16;44.31;100559.15;128872;1288;119267;-68
2023/07/14 10:19:58;;;;;;;5.60;2.60;;;;;;;27.22;44.35;100557.61;129419;1267;114754;-67
2023/07/14 10:23:01;;;;;;;4.00;2.50;;;;;;;27.26;44.00;100550.30;129325;1270;114827;-67
2023/07/14 10:26:05;;;;;;;3.80;2.30;;;;;;;27.27;43.77;100548.13;129112;1278;115470;-66
2023/07/14 10:29:15;;;;;;;5.50;2.40;;;;;;;27.25;43.55;100546.77;129290;1288;114748;-68
2023/07/14 10:32:32;;;;;;;4.70;1.90;;;;;;;27.32;43.38;100542.09;128799;1273;119480;-66
2023/07/14 10:35:37;;;;;;;4.50;1.90;;;;;;;27.39;43.00;100540.70;129066;1269;115259;-69
2023/07/14 10:38:49;;;;;;;5.40;2.00;;;;;;;27.52;42.73;100531.74;128805;1273;114850;-68
2023/07/14 10:41:52;;;;;;;3.90;2.20;;;;;;;27.60;42.21;100529.11;129175;1270;114823;-68
2023/07/14 10:44:54;;;;;;;3.40;2.30;;;;;;;27.68;41.97;100529.47;129380;1278;115071;-70
2023/07/14 10:48:00;;;;;;;6.70;2.30;;;;;;;27.76;41.86;100518.27;129155;1271;115089;-72
2023/07/14 10:51:27;;;;;;;3.20;2.20;;;;;;;27.82;41.91;100517.14;128906;1288;116372;-72
2023/07/14 10:54:53;;;;;;;5.50;2.10;;;;;;;27.80;41.43;100515.96;129250;1283;114764;-74
2023/07/14 10:58:09;;;;;;;3.00;1.70;;;;;;;27.73;41.23;100508.64;129334;1269;114794;-73
2023/07/14 11:01:23;;;;;;;2.40;1.70;;;;;;;27.65;40.94;100504.34;129067;1273;114936;-72
2023/07/14 11:04:33;;;;;;;2.30;1.60;;;;;;;27.44;40.54;100502.52;129316;1270;121182;-73
2023/07/14 11:07:35;;;;;;;2.20;1.70;;;;;;;27.12;40.30;100499.02;129156;1265;116565;-75
2023/07/14 11:10:46;;;;;;;2.60;1.70;;;;;;;26.97;40.57;100498.36;129339;1270;115109;-75
2023/07/14 11:14:25;;;;;;;2.60;2.00;;;;;;;26.78;40.67;100495.88;129301;1288;114747;-74
2023/07/14 11:17:41;;;;;;;5.40;1.90;;;;;;;26.64;40.93;100485.20;129351;1270;114758;-75
2023/07/14 11:21:06;;;;;;;3.20;1.70;;;;;;;26.58;41.89;100482.20;129095;1271;119361;-74
2023/07/14 11:24:26;;;;;;;2.70;1.80;;;;;;;26.52;41.39;100480.13;129009;1265;116533;-74
2023/07/14 11:27:35;;;;;;;3.20;1.60;;;;;;;26.39;41.00;100478.17;129358;1270;114788;-73
2023/07/14 11:30:41;;;;;;;3.90;1.90;;;;;;;26.24;41.05;100476.19;129326;1269;114859;-74
2023/07/14 11:33:53;;;;;;;3.50;1.70;;;;;;;26.13;41.10;100469.99;129346;1271;115443;-73
2023/07/14 11:37:01;;;;;;;2.20;1.80;;;;;;;25.94;40.40;100475.30;129302;1270;120197;-73
2023/07/14 11:40:20;;;;;;;2.80;1.70;;;;;;;25.67;40.35;100471.75;129110;1273;115207;-73
2023/07/14 11:43:25;;;;;;;4.60;2.20;;;;;;;25.50;40.92;100467.35;129353;1270;114773;-72
2023/07/14 11:46:27;;;;;;;5.80;2.10;;;;;;;25.43;41.03;100465.99;129075;1265;114968;-74
2023/07/14 11:49:35;;;;;;;4.10;2.20;;;;;;;25.31;41.16;100458.80;129275;1270;114853;-72
2023/07/14 11:52:39;;;;;;;5.20;2.40;;;;;;;25.23;41.26;100457.86;129080;1269;118945;-75
2023/07/14 11:55:41;;;;;;;6.20;2.00;;;;;;;25.16;41.22;100456.06;129014;1267;115287;-73
2023/07/14 11:58:44;;;;;;;6.20;1.70;;;;;;;25.12;41.16;100451.64;129181;1270;114757;-73
2023/07/14 12:01:49;;;;;;;4.40;1.80;;;;;;;25.04;41.07;100455.30;129304;1288;114777;-73
2023/07/14 12:05:14;;;;;;;6.40;1.90;;;;;;;24.99;41.58;100451.73;129132;1267;114964;-73
2023/07/14 12:08:22;;;;;;;;;;;;;;;25.01;41.83;100448.73;129362;1267;119753;-73
2023/07/14 12:11:27;;;;;;;4.40;2.10;;;;;;;25.00;42.08;100446.11;129317;1288;115214;-73
2023/07/14 12:14:35;;;;;;;4.70;2.20;;;;;;;24.99;42.26;100443.85;129112;1270;114856;-73
2023/07/14 12:17:44;;;;;;;2.20;1.60;;;;;;;24.99;42.44;100441.11;129403;1288;114756;-74
2023/07/14 12:20:47;;;;;;;7.00;2.60;;;;;;;25.01;42.63;100439.02;129320;1269;114810;-73
2023/07/14 12:23:52;;;;;;;2.90;1.90;;;;;;;25.02;42.59;100436.19;129278;1270;114852;-75
2023/07/14 12:27:12;;;;;;;4.10;2.20;;;;;;;25.03;42.31;100431.90;129408;1270;115287;-72
2023/07/14 12:30:24;;;;;;;3.50;1.90;;;;;;;24.99;41.75;100427.55;129002;1288;114696;-73
2023/07/14 12:33:26;;;;;;;3.60;2.30;;;;;;;24.93;41.70;100425.63;129289;1270;115120;-74
2023/07/14 12:36:31;;;;;;;7.30;1.90;;;;;;;24.92;41.68;100415.02;129317;1270;114827;-73
2023/07/14 12:39:33;;;;;;;4.20;2.00;;;;;;;24.98;42.08;100415.42;129066;1274;119278;-75
2023/07/14 12:42:40;;;;;;;5.40;2.30;;;;;;;25.07;41.86;100411.95;129273;1271;114856;-74
2023/07/14 12:45:42;;;;;;;3.30;2.10;;;;;;;25.13;41.73;100405.41;129194;1273;114878;-76
2023/07/14 12:48:44;;;;;;;4.10;1.90;;;;;;;25.17;41.51;100399.65;129298;1288;115221;-74
2023/07/14 12:51:47;;;;;;;3.90;1.90;;;;;;;25.18;41.45;100394.92;129300;1278;114817;-75
2023/07/14 12:54:49;;;;;;;3.60;2.10;;;;;;;25.20;41.85;100389.99;129345;1270;114763;-72
2023/07/14 12:57:52;;;;;;;5.00;2.30;;;;;;;25.22;41.75;100382.52;129058;1270;114799;-70
2023/07/14 13:00:55;;;;;;;7.70;2.40;;;;;;;25.26;41.67;100388.07;129425;1270;115451;-74
2023/07/14 13:03:57;;;;;;;4.10;2.40;;;;;;;25.35;41.80;100384.54;129432;1265;114750;-72
2023/07/14 13:07:11;;;;;;;5.70;2.20;;;;;;;25.47;41.90;100380.83;129376;1286;114846;-73
2023/07/14 13:10:26;;;;;;;2.70;1.80;;;;;;;25.64;41.97;100375.69;129440;1288;115378;-73
2023/07/14 13:13:38;;;;;;;;;;;;;;;25.84;41.72;100374.48;129289;1270;114852;-72
2023/07/14 13:16:40;;;;;;;7.70;2.10;;;;;;;26.02;41.15;100372.43;128962;1265;119204;-74
2023/07/14 13:19:46;;;;;;;5.20;2.60;;;;;;;26.19;41.10;100368.13;129044;1273;115216;-74
2023/07/14 13:23:31;;;;;;;3.30;1.80;;;;;;;26.36;40.68;100368.66;129103;1265;114841;-74
2023/07/14 13:27:05;;;;;;;3.30;2.20;;;;;;;26.49;40.84;100364.91;128417;1295;114909;-73
2023/07/14 13:30:31;;;;;;;3.10;2.10;;;;;;;26.61;40.54;100358.20;128301;1296;114787;-72
2023/07/14 13:33:34;;;;;;;4.90;1.80;;;;;;;26.68;40.27;100357.06;128400;1277;120246;-72
2023/07/14 13:36:36;;;;;;;5.90;2.10;;;;;;;26.72;39.65;100356.75;128609;1287;114899;-73
2023/07/14 13:39:44;;;;;;;3.40;2.00;;;;;;;26.71;39.79;100354.54;128247;1279;114998;-73
2023/07/14 13:42:49;;;;;;;6.50;1.70;;;;;;;26.78;39.75;100355.50;128661;1273;114850;-71
2023/07/14 13:46:26;;;;;;;2.50;1.90;;;;;;;26.84;39.84;100353.55;128596;1296;115635;-73
2023/07/14 13:49:29;;;;;;;2.90;1.80;;;;;;;26.94;39.77;100349.85;128261;1279;114846;-74
2023/07/14 13:52:35;;;;;;;3.80;2.10;;;;;;;27.08;39.95;100340.70;127974;1296;129067;-67
2023/07/14 13:55:37;;;;;;;6.90;2.00;;;;;;;27.19;39.75;100339.23;128234;1273;115490;-78
2023/07/14 13:58:39;;;;;;;7.90;2.40;;;;;;;27.27;39.81;100337.15;128467;1276;115472;-78
2023/07/14 14:01:41;;;;;;;4.20;1.80;;;;;;;27.30;39.95;100335.05;128767;1285;115272;-76